createdAt,value
2023-08-25T00:01:32.003Z,17.60
2023-08-25T00:03:58.877Z,17.56
2023-08-25T00:06:25.667Z,17.54
2023-08-25T00:08:52.400Z,17.54
2023-08-25T00:11:19.205Z,17.52
2023-08-25T00:13:45.950Z,17.52
2023-08-25T00:16:13.195Z,17.53
2023-08-25T00:18:40.249Z,17.54
2023-08-25T00:21:07.015Z,17.56
2023-08-25T00:23:33.804Z,17.54
2023-08-25T00:26:00.595Z,17.52
2023-08-25T00:28:27.358Z,17.51
2023-08-25T00:30:56.059Z,17.51
2023-08-25T00:33:22.924Z,17.50
2023-08-25T00:35:51.106Z,17.52
2023-08-25T00:38:17.955Z,17.51
2023-08-25T00:40:44.719Z,17.51
2023-08-25T00:43:11.566Z,17.51
2023-08-25T00:45:42.912Z,17.51
2023-08-25T00:48:12.012Z,17.51
2023-08-25T00:50:41.099Z,17.52
2023-08-25T00:53:09.515Z,17.52
2023-08-25T00:55:36.684Z,17.51
2023-08-25T00:58:07.050Z,17.50
2023-08-25T01:00:34.674Z,17.49
2023-08-25T01:03:02.218Z,17.47
2023-08-25T01:05:29.047Z,17.41
2023-08-25T01:07:58.644Z,17.35
2023-08-25T01:10:48.045Z,17.33
2023-08-25T01:13:21.088Z,17.30
2023-08-25T01:15:54.542Z,17.28
2023-08-25T01:18:31.034Z,17.26
2023-08-25T01:21:00.051Z,17.26
2023-08-25T01:23:36.448Z,17.26
2023-08-25T01:26:04.516Z,17.23
2023-08-25T01:28:31.296Z,17.24
2023-08-25T01:31:00.441Z,17.24
2023-08-25T01:33:32.082Z,17.25
2023-08-25T01:36:23.111Z,17.25
2023-08-25T01:39:08.105Z,17.26
2023-08-25T01:41:50.651Z,17.25
2023-08-25T01:44:21.388Z,17.24
2023-08-25T01:46:52.847Z,17.26
2023-08-25T01:49:20.861Z,17.24
2023-08-25T01:51:47.743Z,17.20
2023-08-25T01:54:17.175Z,17.16
2023-08-25T01:56:44.535Z,17.15
2023-08-25T01:59:11.195Z,17.12
2023-08-25T02:01:38.054Z,17.11
2023-08-25T02:04:04.890Z,17.13
2023-08-25T02:06:31.671Z,17.10
2023-08-25T02:08:58.384Z,17.10
2023-08-25T02:11:25.245Z,17.08
2023-08-25T02:13:51.952Z,17.07
2023-08-25T02:16:19.583Z,17.06
2023-08-25T02:18:46.772Z,17.06
2023-08-25T02:21:13.493Z,17.05
2023-08-25T02:23:41.456Z,17.02
2023-08-25T02:26:08.296Z,17.02
2023-08-25T02:28:36.476Z,17.04
2023-08-25T02:31:30.222Z,17.10
2023-08-25T02:34:01.598Z,17.15
2023-08-25T02:36:28.336Z,17.19
2023-08-25T02:38:55.056Z,17.20
2023-08-25T02:41:21.813Z,17.21
2023-08-25T02:43:48.742Z,17.21
2023-08-25T02:46:16.613Z,17.19
2023-08-25T02:48:43.311Z,17.18
2023-08-25T02:51:16.037Z,17.15
2023-08-25T02:53:42.730Z,17.10
2023-08-25T02:56:09.512Z,17.07
2023-08-25T02:58:36.217Z,17.06
2023-08-25T03:01:13.029Z,17.07
2023-08-25T03:03:40.238Z,17.07
2023-08-25T03:06:07.160Z,17.08
2023-08-25T03:08:33.897Z,17.06
2023-08-25T03:11:04.256Z,17.04
2023-08-25T03:13:34.284Z,17.02
2023-08-25T03:16:03.467Z,16.99
2023-08-25T03:18:30.613Z,16.94
2023-08-25T03:20:57.398Z,16.95
2023-08-25T03:23:24.800Z,16.99
2023-08-25T03:25:51.603Z,17.02
2023-08-25T03:28:18.615Z,17.04
2023-08-25T03:30:45.405Z,17.09
2023-08-25T03:33:12.152Z,17.13
2023-08-25T03:35:39.401Z,17.14
2023-08-25T03:38:06.496Z,17.15
2023-08-25T03:40:34.151Z,17.14
2023-08-25T03:43:00.957Z,17.15
2023-08-25T03:45:28.103Z,17.16
2023-08-25T03:47:55.349Z,17.15
2023-08-25T03:50:22.937Z,17.16
2023-08-25T03:52:51.248Z,17.19
2023-08-25T03:55:18.156Z,17.21
2023-08-25T03:57:44.973Z,17.21
2023-08-25T04:00:12.067Z,17.20
2023-08-25T04:02:41.375Z,17.22
2023-08-25T04:05:08.791Z,17.18
2023-08-25T04:07:35.514Z,17.12
2023-08-25T04:10:02.269Z,17.08
2023-08-25T04:12:28.984Z,17.04
2023-08-25T04:14:55.743Z,17.02
2023-08-25T04:17:22.583Z,16.99
2023-08-25T04:19:49.489Z,16.97
2023-08-25T04:22:16.177Z,16.97
2023-08-25T04:24:43.929Z,16.99
2023-08-25T04:27:10.638Z,17.00
2023-08-25T04:29:37.555Z,17.02
2023-08-25T04:32:04.479Z,17.02
2023-08-25T04:34:31.298Z,17.02
2023-08-25T04:36:57.993Z,17.00
2023-08-25T04:39:25.381Z,17.05
2023-08-25T04:41:54.146Z,17.13
2023-08-25T04:44:20.923Z,17.26
2023-08-25T04:46:47.655Z,17.39
2023-08-25T04:49:14.905Z,17.51
2023-08-25T04:51:41.680Z,17.59
2023-08-25T04:54:08.401Z,17.73
2023-08-25T04:56:36.161Z,17.90
2023-08-25T04:59:02.908Z,18.01
2023-08-25T05:01:30.835Z,18.07
2023-08-25T05:03:57.635Z,18.10
2023-08-25T05:06:24.416Z,18.17
2023-08-25T05:08:51.341Z,18.28
2023-08-25T05:11:18.814Z,18.44
2023-08-25T05:13:45.797Z,18.58
2023-08-25T05:16:13.612Z,18.67
2023-08-25T05:18:40.434Z,18.77
2023-08-25T05:21:07.374Z,18.84
2023-08-25T05:23:34.244Z,18.92
2023-08-25T05:26:01.502Z,18.98
2023-08-25T05:28:28.386Z,19.03
2023-08-25T05:30:55.486Z,19.07
2023-08-25T05:33:22.314Z,19.09
2023-08-25T05:35:49.169Z,19.15
2023-08-25T05:38:16.547Z,19.19
2023-08-25T05:40:43.220Z,19.28
2023-08-25T05:43:10.521Z,19.37
2023-08-25T05:45:37.455Z,19.43
2023-08-25T05:48:04.640Z,19.47
2023-08-25T05:50:31.464Z,19.54
2023-08-25T05:52:58.240Z,19.65
2023-08-25T05:55:25.114Z,19.80
2023-08-25T05:57:52.199Z,19.96
2023-08-25T06:00:19.938Z,20.09
2023-08-25T06:02:46.884Z,20.18
2023-08-25T06:05:14.346Z,20.24
2023-08-25T06:07:41.061Z,20.31
2023-08-25T06:10:09.334Z,20.43
2023-08-25T06:12:36.035Z,20.53
2023-08-25T06:15:03.099Z,20.60
2023-08-25T06:17:30.363Z,20.67
2023-08-25T06:19:57.082Z,20.74
2023-08-25T06:22:24.374Z,20.93
2023-08-25T06:24:51.064Z,21.16
2023-08-25T06:27:19.636Z,21.35
2023-08-25T06:29:47.124Z,21.53
2023-08-25T06:32:15.585Z,21.69
2023-08-25T06:34:42.422Z,21.87
2023-08-25T06:37:09.179Z,21.90
2023-08-25T06:39:35.994Z,21.89
2023-08-25T06:42:03.167Z,21.81
2023-08-25T06:44:30.854Z,21.78
2023-08-25T06:47:00.063Z,21.65
2023-08-25T06:49:27.229Z,21.55
2023-08-25T06:51:54.059Z,21.49
2023-08-25T06:54:23.309Z,21.49
2023-08-25T06:56:50.295Z,21.55
2023-08-25T06:59:17.144Z,21.65
2023-08-25T07:01:44.957Z,21.68
2023-08-25T07:04:12.214Z,21.65
2023-08-25T07:06:38.951Z,21.67
2023-08-25T07:09:05.707Z,21.67
2023-08-25T07:11:32.478Z,21.66
2023-08-25T07:14:00.201Z,21.66
2023-08-25T07:16:28.982Z,21.76
2023-08-25T07:18:55.727Z,21.96
2023-08-25T07:21:22.929Z,22.24
2023-08-25T07:23:51.171Z,22.50
2023-08-25T07:26:17.866Z,22.73
2023-08-25T07:28:44.602Z,23.01
2023-08-25T07:31:11.406Z,23.33
2023-08-25T07:33:38.226Z,23.70
2023-08-25T07:36:06.183Z,23.95
2023-08-25T07:38:32.944Z,24.11
2023-08-25T07:40:59.751Z,24.24
2023-08-25T07:43:26.553Z,24.36
2023-08-25T07:45:54.306Z,24.47
2023-08-25T07:48:21.611Z,24.62
2023-08-25T07:50:48.476Z,24.80
2023-08-25T07:53:15.431Z,24.99
2023-08-25T07:55:43.025Z,25.16
2023-08-25T07:58:11.361Z,25.22
2023-08-25T08:00:39.191Z,25.32
2023-08-25T08:03:09.995Z,25.40
2023-08-25T08:05:37.409Z,25.51
2023-08-25T08:08:04.353Z,25.73
2023-08-25T08:10:31.097Z,25.94
2023-08-25T08:12:58.149Z,26.23
2023-08-25T08:15:25.534Z,27.09
2023-08-25T08:17:53.068Z,28.53
2023-08-25T08:20:20.475Z,30.03
2023-08-25T08:22:47.833Z,31.67
2023-08-25T08:25:15.777Z,33.32
2023-08-25T08:27:43.942Z,34.98
2023-08-25T08:30:11.494Z,36.36
2023-08-25T08:32:40.173Z,37.44
2023-08-25T08:35:11.338Z,38.38
2023-08-25T08:37:39.756Z,39.13
2023-08-25T08:40:09.615Z,39.70
2023-08-25T08:42:43.189Z,40.11
2023-08-25T08:45:12.168Z,40.62
2023-08-25T08:47:40.387Z,40.88
2023-08-25T08:50:08.610Z,41.05
2023-08-25T08:52:35.757Z,40.99
2023-08-25T08:55:06.825Z,40.53
2023-08-25T08:57:33.757Z,39.94
2023-08-25T09:00:00.808Z,39.30
2023-08-25T09:02:32.287Z,38.53
2023-08-25T09:05:00.424Z,37.89
2023-08-25T09:07:32.692Z,37.43
2023-08-25T09:10:00.581Z,36.92
2023-08-25T09:12:28.078Z,36.30
2023-08-25T09:14:54.887Z,35.75
2023-08-25T09:17:23.298Z,35.27
2023-08-25T09:19:50.927Z,34.69
2023-08-25T09:22:18.863Z,34.10
2023-08-25T09:24:46.172Z,33.70
2023-08-25T09:27:24.030Z,33.16
2023-08-25T09:30:05.249Z,32.57
2023-08-25T09:32:32.582Z,32.03
2023-08-25T09:35:23.410Z,31.59
2023-08-25T09:37:50.417Z,31.17
2023-08-25T09:40:18.851Z,30.83
2023-08-25T09:42:46.778Z,30.33
2023-08-25T09:45:13.932Z,29.97
2023-08-25T09:47:44.739Z,29.73
2023-08-25T09:50:19.000Z,29.46
2023-08-25T09:52:48.065Z,29.33
2023-08-25T09:55:15.472Z,29.19
2023-08-25T09:57:46.638Z,29.10
2023-08-25T10:00:14.253Z,29.03
2023-08-25T10:02:41.358Z,28.95
2023-08-25T10:05:11.235Z,28.90
2023-08-25T10:07:38.584Z,28.84
2023-08-25T10:10:07.001Z,28.70
2023-08-25T10:12:36.053Z,28.56
2023-08-25T10:15:04.666Z,28.52
2023-08-25T10:17:32.044Z,28.47
2023-08-25T10:20:02.661Z,28.46
2023-08-25T10:22:30.408Z,28.46
2023-08-25T10:25:02.600Z,28.47
2023-08-25T10:27:30.049Z,28.51
2023-08-25T10:29:58.289Z,28.56
2023-08-25T10:32:25.192Z,28.56
2023-08-25T10:34:54.468Z,28.56
2023-08-25T10:37:33.767Z,28.57
2023-08-25T10:40:08.712Z,28.58
2023-08-25T10:42:36.792Z,28.58
2023-08-25T10:45:10.590Z,28.62
2023-08-25T10:47:52.755Z,28.68
2023-08-25T10:50:23.936Z,28.71
2023-08-25T10:52:57.036Z,28.74
2023-08-25T10:55:31.070Z,28.66
2023-08-25T10:58:08.133Z,28.58
2023-08-25T11:00:39.485Z,28.55
2023-08-25T11:03:09.261Z,28.44
2023-08-25T11:05:36.520Z,28.39
2023-08-25T11:08:04.797Z,28.34
2023-08-25T11:10:35.154Z,28.29
2023-08-25T11:13:10.217Z,28.25
2023-08-25T11:15:39.841Z,28.25
2023-08-25T11:18:08.232Z,28.24
2023-08-25T11:20:35.218Z,28.22
2023-08-25T11:23:18.415Z,28.26
2023-08-25T11:25:48.443Z,28.29
2023-08-25T11:28:15.450Z,28.26
2023-08-25T11:30:42.479Z,28.20
2023-08-25T11:33:10.511Z,28.19
2023-08-25T11:35:37.508Z,28.18
2023-08-25T11:38:04.400Z,28.16
2023-08-25T11:40:31.798Z,28.16
2023-08-25T11:42:58.773Z,28.13
2023-08-25T11:45:29.822Z,28.14
2023-08-25T11:47:57.882Z,28.15
2023-08-25T11:50:26.218Z,28.16
2023-08-25T11:52:55.983Z,28.20
2023-08-25T11:55:36.448Z,28.20
2023-08-25T11:58:13.199Z,28.17
2023-08-25T12:00:40.118Z,28.12
2023-08-25T12:03:08.665Z,28.17
2023-08-25T12:05:36.735Z,28.19
2023-08-25T12:08:04.549Z,28.27
2023-08-25T12:10:40.601Z,28.29
2023-08-25T12:13:07.455Z,28.29
2023-08-25T12:15:45.575Z,28.30
2023-08-25T12:18:15.636Z,28.28
2023-08-25T12:20:45.858Z,28.29
2023-08-25T12:23:12.672Z,28.33
2023-08-25T12:25:39.645Z,28.34
2023-08-25T12:28:06.555Z,28.29
2023-08-25T12:30:33.395Z,28.23
2023-08-25T12:33:00.455Z,28.24
2023-08-25T12:35:27.578Z,28.29
2023-08-25T12:37:54.844Z,28.36
2023-08-25T12:40:21.850Z,28.50
2023-08-25T12:42:55.128Z,28.63
2023-08-25T12:45:23.652Z,28.65
2023-08-25T12:47:52.178Z,28.62
2023-08-25T12:50:19.393Z,28.58
2023-08-25T12:52:46.951Z,28.57
2023-08-25T12:55:21.182Z,28.59
2023-08-25T12:57:52.995Z,28.57
2023-08-25T13:00:20.304Z,28.60
2023-08-25T13:02:47.955Z,28.63
2023-08-25T13:05:16.001Z,28.59
2023-08-25T13:07:42.995Z,28.53
2023-08-25T13:10:10.733Z,28.48
2023-08-25T13:12:37.620Z,28.44
2023-08-25T13:15:05.564Z,28.38
2023-08-25T13:17:32.724Z,28.28
2023-08-25T13:19:59.491Z,28.23
2023-08-25T13:22:26.272Z,28.24
2023-08-25T13:24:53.121Z,28.33
2023-08-25T13:27:20.253Z,28.44
2023-08-25T13:29:47.057Z,28.47
2023-08-25T13:32:13.934Z,28.44
2023-08-25T13:34:40.782Z,28.46
2023-08-25T13:37:07.561Z,28.47
2023-08-25T13:39:36.217Z,28.54
2023-08-25T13:42:03.128Z,28.56
2023-08-25T13:44:34.306Z,28.53
2023-08-25T13:47:02.731Z,28.52
2023-08-25T13:49:29.466Z,28.53
2023-08-25T13:51:56.513Z,28.57
2023-08-25T13:54:24.004Z,28.61
2023-08-25T13:56:51.289Z,28.66
2023-08-25T13:59:18.589Z,28.67
2023-08-25T14:01:45.471Z,28.64
2023-08-25T14:04:12.274Z,28.63
2023-08-25T14:06:39.032Z,28.63
2023-08-25T14:09:07.077Z,28.60
2023-08-25T14:11:34.205Z,28.57
2023-08-25T14:14:01.546Z,28.61
2023-08-25T14:16:31.461Z,28.72
2023-08-25T14:18:58.249Z,28.80
2023-08-25T14:21:24.970Z,28.86
2023-08-25T14:23:52.298Z,28.88
2023-08-25T14:26:18.983Z,28.91
2023-08-25T14:28:45.737Z,28.94
2023-08-25T14:31:12.569Z,28.98
2023-08-25T14:33:39.373Z,28.97
2023-08-25T14:36:07.722Z,28.93
2023-08-25T14:38:34.888Z,28.90
2023-08-25T14:41:01.685Z,28.88
2023-08-25T14:43:28.425Z,28.85
2023-08-25T14:45:55.235Z,28.81
2023-08-25T14:48:22.039Z,28.81
2023-08-25T14:50:59.059Z,28.84
2023-08-25T14:53:25.864Z,28.85
2023-08-25T14:55:52.685Z,28.92
2023-08-25T14:58:19.517Z,28.98
2023-08-25T15:00:47.592Z,28.99
2023-08-25T15:03:14.578Z,28.92
2023-08-25T15:05:41.858Z,28.92
2023-08-25T15:08:08.638Z,28.93
2023-08-25T15:10:35.469Z,28.98
2023-08-25T15:13:02.371Z,29.01
2023-08-25T15:15:29.221Z,29.03
2023-08-25T15:17:56.443Z,29.00
2023-08-25T15:20:23.552Z,28.96
2023-08-25T15:22:50.362Z,28.96
2023-08-25T15:25:17.817Z,28.98
2023-08-25T15:27:45.263Z,28.97
2023-08-25T15:30:12.682Z,28.97
2023-08-25T15:32:43.830Z,28.90
2023-08-25T15:35:11.560Z,28.88
2023-08-25T15:37:38.326Z,28.84
2023-08-25T15:40:05.878Z,28.83
2023-08-25T15:42:32.649Z,28.79
2023-08-25T15:45:00.332Z,28.76
2023-08-25T15:47:27.099Z,28.72
2023-08-25T15:49:54.226Z,28.66
2023-08-25T15:52:21.615Z,28.59
2023-08-25T15:54:48.410Z,28.52
2023-08-25T15:57:15.169Z,28.43
2023-08-25T15:59:42.068Z,28.35
2023-08-25T16:02:08.822Z,28.26
2023-08-25T16:04:35.581Z,28.14
2023-08-25T16:07:02.367Z,28.04
2023-08-25T16:09:29.318Z,27.96
2023-08-25T16:11:56.165Z,27.93
2023-08-25T16:14:22.906Z,27.91
2023-08-25T16:16:50.980Z,27.87
2023-08-25T16:19:17.750Z,27.84
2023-08-25T16:21:44.520Z,27.81
2023-08-25T16:24:11.265Z,27.81
2023-08-25T16:26:39.292Z,27.81
2023-08-25T16:29:06.436Z,27.79
2023-08-25T16:31:33.218Z,27.78
2023-08-25T16:34:02.151Z,27.75
2023-08-25T16:36:28.904Z,27.75
2023-08-25T16:38:55.684Z,27.76
2023-08-25T16:41:22.626Z,27.76
2023-08-25T16:43:51.065Z,27.74
2023-08-25T16:46:17.892Z,27.68
2023-08-25T16:48:45.950Z,27.62
2023-08-25T16:51:12.700Z,27.54
2023-08-25T16:53:39.476Z,27.49
2023-08-25T16:56:06.282Z,27.42
2023-08-25T16:58:33.052Z,27.37
2023-08-25T17:00:59.889Z,27.31
2023-08-25T17:03:30.886Z,27.21
2023-08-25T17:06:01.819Z,27.12
2023-08-25T17:08:30.246Z,27.02
2023-08-25T17:10:57.045Z,26.93
2023-08-25T17:13:24.570Z,26.85
2023-08-25T17:15:52.844Z,26.79
2023-08-25T17:18:19.642Z,26.74
2023-08-25T17:20:46.444Z,26.67
2023-08-25T17:23:13.199Z,26.62
2023-08-25T17:25:39.923Z,26.56
2023-08-25T17:28:09.323Z,26.50
2023-08-25T17:30:36.305Z,26.43
2023-08-25T17:33:05.096Z,26.36
2023-08-25T17:35:32.037Z,26.30
2023-08-25T17:37:58.859Z,26.23
2023-08-25T17:40:25.695Z,26.16
2023-08-25T17:42:52.972Z,26.11
2023-08-25T17:45:19.968Z,26.04
2023-08-25T17:47:46.887Z,25.95
2023-08-25T17:50:13.865Z,25.84
2023-08-25T17:52:40.682Z,25.75
2023-08-25T17:55:07.987Z,25.66
2023-08-25T17:57:35.493Z,25.58
2023-08-25T18:00:02.976Z,25.50
2023-08-25T18:02:29.954Z,25.42
2023-08-25T18:04:56.846Z,25.36
2023-08-25T18:07:23.574Z,25.28
2023-08-25T18:09:50.569Z,25.20
2023-08-25T18:12:17.515Z,25.12
2023-08-25T18:14:44.313Z,25.06
2023-08-25T18:17:11.047Z,24.99
2023-08-25T18:19:37.803Z,24.91
2023-08-25T18:22:05.027Z,24.85
2023-08-25T18:24:31.895Z,24.79
2023-08-25T18:26:58.618Z,24.74
2023-08-25T18:29:25.983Z,24.69
2023-08-25T18:31:52.792Z,24.64
2023-08-25T18:34:22.729Z,24.58
2023-08-25T18:36:49.448Z,24.51
2023-08-25T18:39:16.403Z,24.45
2023-08-25T18:41:44.279Z,24.39
2023-08-25T18:44:11.062Z,24.30
2023-08-25T18:46:37.842Z,24.24
2023-08-25T18:49:05.484Z,24.22
2023-08-25T18:51:33.196Z,24.17
2023-08-25T18:54:00.004Z,24.13
2023-08-25T18:56:26.808Z,24.10
2023-08-25T18:58:53.809Z,24.08
2023-08-25T19:01:21.449Z,24.03
2023-08-25T19:03:48.318Z,23.99
2023-08-25T19:06:15.570Z,23.93
2023-08-25T19:08:42.384Z,23.89
2023-08-25T19:11:09.353Z,23.86
2023-08-25T19:13:36.148Z,23.82
2023-08-25T19:16:04.851Z,23.76
2023-08-25T19:18:31.777Z,23.70
2023-08-25T19:21:02.259Z,23.65
2023-08-25T19:23:34.115Z,23.58
2023-08-25T19:26:11.625Z,23.55
2023-08-25T19:28:42.536Z,23.52
2023-08-25T19:31:13.866Z,23.51
2023-08-25T19:33:40.841Z,23.48
2023-08-25T19:36:08.787Z,23.45
2023-08-25T19:38:36.245Z,23.40
2023-08-25T19:41:08.094Z,23.36
2023-08-25T19:43:40.580Z,23.33
2023-08-25T19:46:07.873Z,23.28
2023-08-25T19:48:38.402Z,23.27
2023-08-25T19:51:07.983Z,23.27
2023-08-25T19:53:35.877Z,23.26
2023-08-25T19:56:02.682Z,23.26
2023-08-25T19:58:29.633Z,23.28
2023-08-25T20:00:56.387Z,23.28
2023-08-25T20:03:24.137Z,23.28
2023-08-25T20:06:05.826Z,23.27
2023-08-25T20:08:33.043Z,23.27
2023-08-25T20:11:09.234Z,23.28
2023-08-25T20:13:40.220Z,23.27
2023-08-25T20:16:06.994Z,23.28
2023-08-25T20:18:34.072Z,23.28
2023-08-25T20:21:01.045Z,23.27
2023-08-25T20:23:30.787Z,23.26
2023-08-25T20:25:59.102Z,23.24
2023-08-25T20:28:26.117Z,23.24
2023-08-25T20:30:53.068Z,23.23
2023-08-25T20:33:20.233Z,23.21
2023-08-25T20:35:47.198Z,23.16
2023-08-25T20:38:15.558Z,23.14
2023-08-25T20:40:45.704Z,23.12
2023-08-25T20:43:13.608Z,23.07
2023-08-25T20:45:44.472Z,23.04
2023-08-25T20:48:13.155Z,23.02
2023-08-25T20:50:40.489Z,22.99
2023-08-25T20:53:07.225Z,22.98
2023-08-25T20:55:34.082Z,22.95
2023-08-25T20:58:01.028Z,22.95
2023-08-25T21:00:28.889Z,22.96
2023-08-25T21:02:57.139Z,22.97
2023-08-25T21:05:24.330Z,22.98
2023-08-25T21:07:51.418Z,22.97
2023-08-25T21:10:18.218Z,22.96
2023-08-25T21:12:45.069Z,22.95
2023-08-25T21:15:11.855Z,22.94
2023-08-25T21:17:38.579Z,22.93
2023-08-25T21:20:06.610Z,22.92
2023-08-25T21:22:33.612Z,22.91
2023-08-25T21:25:00.350Z,22.90
2023-08-25T21:27:27.127Z,22.90
2023-08-25T21:29:53.825Z,22.89
2023-08-25T21:32:21.677Z,22.90
2023-08-25T21:34:48.446Z,22.90
2023-08-25T21:37:15.282Z,22.90
2023-08-25T21:39:42.049Z,22.89
2023-08-25T21:42:08.828Z,22.89
2023-08-25T21:44:35.875Z,22.86
2023-08-25T21:47:03.217Z,22.81
2023-08-25T21:49:30.017Z,22.77
2023-08-25T21:51:56.945Z,22.75
2023-08-25T21:54:23.655Z,22.76
2023-08-25T21:56:50.422Z,22.73
2023-08-25T21:59:17.152Z,22.72
2023-08-25T22:01:43.946Z,22.69
2023-08-25T22:04:12.533Z,22.60
2023-08-25T22:06:39.800Z,22.50
2023-08-25T22:09:06.520Z,22.38
2023-08-25T22:11:33.752Z,22.30
2023-08-25T22:14:01.301Z,22.24
2023-08-25T22:16:28.446Z,22.16
2023-08-25T22:18:55.924Z,22.08
2023-08-25T22:21:22.720Z,22.00
2023-08-25T22:23:50.528Z,21.92
2023-08-25T22:26:17.956Z,21.85
2023-08-25T22:28:45.698Z,21.80
2023-08-25T22:31:12.473Z,21.78
2023-08-25T22:36:08.851Z,21.78
2023-08-25T22:38:36.440Z,21.79
2023-08-25T22:41:03.374Z,21.79
2023-08-25T22:43:33.138Z,21.73
2023-08-25T22:46:07.390Z,21.64
2023-08-25T22:48:34.213Z,21.58
2023-08-25T22:51:01.151Z,21.54
2023-08-25T22:53:28.664Z,21.52
2023-08-25T22:55:56.198Z,21.50
2023-08-25T22:58:24.015Z,21.48
2023-08-25T23:00:51.153Z,21.40
2023-08-25T23:03:18.021Z,21.34
2023-08-25T23:05:45.245Z,21.29
2023-08-25T23:08:12.087Z,21.26
2023-08-25T23:10:40.395Z,21.22
2023-08-25T23:13:11.025Z,21.21
2023-08-25T23:15:38.332Z,21.20
2023-08-25T23:18:06.389Z,21.20
2023-08-25T23:20:36.358Z,21.18
2023-08-25T23:23:03.336Z,21.18
2023-08-25T23:25:30.232Z,21.18
2023-08-25T23:27:57.382Z,21.16
2023-08-25T23:30:24.380Z,21.18
2023-08-25T23:32:51.181Z,21.20
2023-08-25T23:35:18.421Z,21.21
2023-08-25T23:37:45.556Z,21.23
2023-08-25T23:40:13.042Z,21.26
2023-08-25T23:42:39.918Z,21.24
2023-08-25T23:45:07.209Z,21.22
2023-08-25T23:47:34.346Z,21.22
2023-08-25T23:50:01.741Z,21.22
2023-08-25T23:52:28.687Z,21.23
2023-08-25T23:54:57.988Z,21.23
2023-08-25T23:57:25.568Z,21.23
2023-08-25T23:59:53.888Z,21.22
